Time;durP1;ratioP1;P1;durP2;ratioP2;P2;SDS_P1;SDS_P2;PMS_P1;PMS_P2;Temp;Humidity;BMP_temperature;BMP_pressure;BME280_temperature;BME280_humidity;BME280_pressure;Samples;Min_cycle;Max_cycle;Signal;HPM_P1;HPM_P2
2022/12/31 00:02:19;;;;;;;122.47;54.40;;;;;;;;;;5015295;28;20213;-64
2022/12/31 00:04:46;;;;;;;151.93;53.57;;;;;;;;;;5015365;28;20233;-64
2022/12/31 00:07:13;;;;;;;145.30;51.57;;;;;;;;;;5015224;28;20212;-64
2022/12/31 00:09:40;;;;;;;133.67;51.43;;;;;;;;;;5015372;28;20209;-65
2022/12/31 00:12:07;;;;;;;203.47;72.17;;;;;;;;;;5014381;28;20237;-64
2022/12/31 00:14:35;;;;;;;112.17;41.87;;;;;;;;;;5015349;28;20205;-64
2022/12/31 00:17:02;;;;;;;115.70;41.87;;;;;;;;;;5015195;28;20202;-63
2022/12/31 00:19:29;;;;;;;211.80;82.20;;;;;;;;;;5015183;28;20263;-63
2022/12/31 00:21:57;;;;;;;238.83;81.47;;;;;;;;;;5014892;28;20662;-63
2022/12/31 00:24:24;;;;;;;156.23;52.33;;;;;;;;;;5014837;28;20202;-63
2022/12/31 00:26:51;;;;;;;101.10;41.67;;;;;;;;;;5014785;28;20227;-62
2022/12/31 00:29:18;;;;;;;119.00;46.43;;;;;;;;;;5014989;28;20219;-63
2022/12/31 00:31:45;;;;;;;108.83;47.97;;;;;;;;;;5015016;28;20290;-63
2022/12/31 00:34:12;;;;;;;82.10;36.80;;;;;;;;;;5014823;28;20205;-63
2022/12/31 00:36:41;;;;;;;208.13;88.23;;;;;;;;;;5014947;28;20210;-63
2022/12/31 00:39:09;;;;;;;117.00;51.70;;;;;;;;;;5029300;28;20225;-63
2022/12/31 00:41:36;;;;;;;157.80;63.67;;;;;;;;;;5034558;28;20215;-63
2022/12/31 00:44:03;;;;;;;124.90;45.23;;;;;;;;;;5034494;28;20292;-62
2022/12/31 00:46:31;;;;;;;121.40;47.13;;;;;;;;;;5034512;28;20208;-63
2022/12/31 00:48:58;;;;;;;72.07;34.57;;;;;;;;;;5034203;28;20215;-62
2022/12/31 00:51:28;;;;;;;87.07;39.57;;;;;;;;;;5034079;28;20556;-63
2022/12/31 00:53:56;;;;;;;80.33;37.83;;;;;;;;;;5034115;28;20290;-63
2022/12/31 00:56:26;;;;;;;92.13;39.07;;;;;;;;;;5034383;28;20282;-63
2022/12/31 00:58:53;;;;;;;146.47;62.23;;;;;;;;;;5034227;28;20197;-64
2022/12/31 01:01:22;;;;;;;122.57;44.57;;;;;;;;;;5034388;28;20204;-63
2022/12/31 01:03:53;;;;;;;152.67;55.07;;;;;;;;;;5033935;28;20241;-63
2022/12/31 01:06:21;;;;;;;84.93;36.07;;;;;;;;;;5033945;28;20204;-63
2022/12/31 01:08:50;;;;;;;85.80;35.37;;;;;;;;;;5034231;28;20197;-63
2022/12/31 01:11:23;;;;;;;145.80;57.07;;;;;;;;;;5034249;28;20461;-63
2022/12/31 01:13:58;;;;;;;56.37;30.70;;;;;;;;;;5034030;28;20286;-63
2022/12/31 01:16:30;;;;;;;59.80;31.50;;;;;;;;;;5033879;28;20204;-63
2022/12/31 01:18:58;;;;;;;184.37;84.53;;;;;;;;;;5033905;28;20621;-63
2022/12/31 01:21:26;;;;;;;177.43;92.67;;;;;;;;;;5034191;28;20216;-63
2022/12/31 01:23:53;;;;;;;76.40;36.10;;;;;;;;;;5037618;28;20205;-63
2022/12/31 01:26:21;;;;;;;68.90;33.40;;;;;;;;;;5038052;28;20204;-63
2022/12/31 01:28:48;;;;;;;94.50;40.90;;;;;;;;;;5037960;28;20209;-63
2022/12/31 01:31:17;;;;;;;59.40;30.57;;;;;;;;;;5037723;28;20742;-63
2022/12/31 01:33:45;;;;;;;81.13;43.90;;;;;;;;;;5038119;28;20273;-63
2022/12/31 01:36:21;;;;;;;61.27;28.70;;;;;;;;;;5038044;28;20219;-63
2022/12/31 01:38:56;;;;;;;64.37;31.57;;;;;;;;;;5037625;28;20324;-62
2022/12/31 01:41:28;;;;;;;90.03;44.67;;;;;;;;;;5037808;28;20212;-63
2022/12/31 01:44:11;;;;;;;90.60;36.03;;;;;;;;;;5037656;28;20220;-62
2022/12/31 01:46:51;;;;;;;87.87;34.67;;;;;;;;;;5037773;28;20215;-62
2022/12/31 01:49:23;;;;;;;71.43;32.13;;;;;;;;;;5037560;28;20295;-63
2022/12/31 01:51:54;;;;;;;63.07;30.80;;;;;;;;;;5036791;28;20684;-62
2022/12/31 01:54:23;;;;;;;59.60;30.07;;;;;;;;;;5037399;28;20188;-62
2022/12/31 01:56:52;;;;;;;56.77;29.63;;;;;;;;;;5037572;28;20217;-62
2022/12/31 01:59:20;;;;;;;65.17;30.47;;;;;;;;;;5037715;28;20201;-62
2022/12/31 02:01:51;;;;;;;137.23;63.30;;;;;;;;;;5037383;28;20219;-62
2022/12/31 02:04:20;;;;;;;90.33;36.83;;;;;;;;;;5036456;28;20227;-62
2022/12/31 02:06:52;;;;;;;61.87;30.27;;;;;;;;;;5036278;28;20419;-62
2022/12/31 02:09:19;;;;;;;64.23;30.30;;;;;;;;;;5037183;28;20201;-63
2022/12/31 02:11:46;;;;;;;58.77;29.40;;;;;;;;;;5037391;28;20228;-62
2022/12/31 02:14:16;;;;;;;64.70;28.97;;;;;;;;;;5037050;28;20235;-63
2022/12/31 02:17:04;;;;;;;57.63;28.77;;;;;;;;;;5037539;28;20239;-63
2022/12/31 02:19:34;;;;;;;51.43;26.30;;;;;;;;;;5036422;28;20193;-62
2022/12/31 02:22:39;;;;;;;352.90;141.73;;;;;;;;;;5037179;28;20209;-62
2022/12/31 02:25:41;;;;;;;92.90;48.53;;;;;;;;;;5037005;28;20209;-62
2022/12/31 02:28:43;;;;;;;52.13;27.30;;;;;;;;;;5036824;28;20231;-63
2022/12/31 02:31:27;;;;;;;73.47;32.90;;;;;;;;;;5030123;28;20208;-62
2022/12/31 02:34:06;;;;;;;68.77;30.93;;;;;;;;;;5035486;28;20532;-62
2022/12/31 02:36:37;;;;;;;71.57;30.17;;;;;;;;;;5035736;28;20224;-62
2022/12/31 02:39:05;;;;;;;53.40;28.47;;;;;;;;;;5035851;28;20700;-62
2022/12/31 02:41:50;;;;;;;47.90;25.70;;;;;;;;;;5036033;28;20513;-63
2022/12/31 02:44:28;;;;;;;164.23;62.37;;;;;;;;;;5037009;28;20189;-62
2022/12/31 02:47:04;;;;;;;66.70;30.17;;;;;;;;;;5036784;28;20193;-63
2022/12/31 02:49:50;;;;;;;59.30;27.17;;;;;;;;;;5035575;28;20520;-63
2022/12/31 02:52:36;;;;;;;54.03;24.67;;;;;;;;;;5036373;28;20671;-63
2022/12/31 02:55:17;;;;;;;49.63;23.97;;;;;;;;;;5036408;28;20209;-64
2022/12/31 02:58:11;;;;;;;40.00;21.27;;;;;;;;;;5035651;28;20220;-63
2022/12/31 03:03:30;;;;;;;47.50;23.50;;;;;;;;;;5035407;28;20645;-63
2022/12/31 03:05:58;;;;;;;52.90;27.67;;;;;;;;;;5036293;28;20205;-63
2022/12/31 03:08:25;;;;;;;56.83;25.40;;;;;;;;;;5035339;28;20212;-63
2022/12/31 03:10:52;;;;;;;48.63;23.43;;;;;;;;;;5036361;28;20213;-63
2022/12/31 03:13:19;;;;;;;42.33;22.63;;;;;;;;;;5035911;28;20239;-64
2022/12/31 03:15:47;;;;;;;45.90;23.47;;;;;;;;;;5036244;28;20216;-63
2022/12/31 03:18:16;;;;;;;40.97;21.67;;;;;;;;;;5035982;28;20200;-63
2022/12/31 03:23:40;;;;;;;207.63;86.23;;;;;;;;;;5035838;28;20285;-64
2022/12/31 03:26:10;;;;;;;53.57;36.27;;;;;;;;;;5036152;28;20201;-63
2022/12/31 03:28:40;;;;;;;39.47;22.00;;;;;;;;;;5036125;28;20251;-63
2022/12/31 03:31:08;;;;;;;41.53;21.07;;;;;;;;;;5036208;28;20205;-64
2022/12/31 03:33:37;;;;;;;38.00;19.43;;;;;;;;;;5036363;28;20220;-63
2022/12/31 03:36:07;;;;;;;35.60;19.60;;;;;;;;;;5035654;28;20223;-63
2022/12/31 03:38:34;;;;;;;34.03;18.00;;;;;;;;;;5035894;28;20232;-62
2022/12/31 03:41:02;;;;;;;30.33;17.43;;;;;;;;;;5036001;28;20200;-63
2022/12/31 03:43:29;;;;;;;30.97;17.73;;;;;;;;;;5034847;28;20213;-62
2022/12/31 03:45:58;;;;;;;64.67;33.70;;;;;;;;;;5034659;28;20201;-62
2022/12/31 03:48:26;;;;;;;36.30;19.60;;;;;;;;;;5035297;28;20291;-63
2022/12/31 03:50:53;;;;;;;39.70;18.60;;;;;;;;;;5035165;28;20503;-63
2022/12/31 03:53:20;;;;;;;33.33;18.67;;;;;;;;;;5035480;28;20600;-62
2022/12/31 03:55:50;;;;;;;26.87;16.57;;;;;;;;;;5035499;28;20347;-62
2022/12/31 03:58:17;;;;;;;26.53;15.43;;;;;;;;;;5035735;28;20307;-63
2022/12/31 04:00:45;;;;;;;31.63;16.37;;;;;;;;;;5035420;28;20196;-62
2022/12/31 04:03:12;;;;;;;28.67;15.60;;;;;;;;;;5034982;28;20220;-62
2022/12/31 04:05:40;;;;;;;66.17;29.30;;;;;;;;;;5034951;28;20548;-63
2022/12/31 04:08:07;;;;;;;60.53;23.47;;;;;;;;;;5035292;28;20207;-63
2022/12/31 04:10:34;;;;;;;39.50;17.60;;;;;;;;;;5034923;28;20205;-63
2022/12/31 04:13:03;;;;;;;30.13;15.93;;;;;;;;;;5034779;28;20236;-63
2022/12/31 04:15:31;;;;;;;36.77;15.97;;;;;;;;;;5034821;28;20211;-63
2022/12/31 04:17:58;;;;;;;27.57;15.37;;;;;;;;;;5034751;28;20640;-65
2022/12/31 04:20:25;;;;;;;33.60;14.90;;;;;;;;;;5035008;28;20278;-63
2022/12/31 04:22:52;;;;;;;212.97;87.40;;;;;;;;;;5034666;28;20209;-63
2022/12/31 04:25:19;;;;;;;102.43;52.67;;;;;;;;;;5034745;28;20274;-63
2022/12/31 04:27:46;;;;;;;32.57;16.73;;;;;;;;;;5034589;28;20201;-63
2022/12/31 04:30:14;;;;;;;26.93;15.37;;;;;;;;;;5034663;28;20205;-64
2022/12/31 04:32:41;;;;;;;25.77;13.60;;;;;;;;;;5034656;28;20224;-64
2022/12/31 04:35:10;;;;;;;23.37;13.77;;;;;;;;;;5034698;28;20204;-64
2022/12/31 04:37:37;;;;;;;25.43;13.10;;;;;;;;;;5034400;28;20232;-64
2022/12/31 04:40:05;;;;;;;21.27;12.47;;;;;;;;;;5034434;28;20197;-63
2022/12/31 04:42:33;;;;;;;20.70;13.03;;;;;;;;;;5034385;28;20235;-63
2022/12/31 04:45:01;;;;;;;53.33;24.47;;;;;;;;;;5034293;28;20266;-63
2022/12/31 04:47:28;;;;;;;29.57;14.73;;;;;;;;;;5034509;28;20200;-64
2022/12/31 04:49:56;;;;;;;28.03;13.60;;;;;;;;;;5034510;28;20204;-63
2022/12/31 04:52:23;;;;;;;21.67;12.00;;;;;;;;;;5034420;28;20311;-64
2022/12/31 04:54:50;;;;;;;21.73;12.30;;;;;;;;;;5034412;28;20205;-63
2022/12/31 04:57:17;;;;;;;18.87;11.87;;;;;;;;;;5033963;28;20200;-64
2022/12/31 04:59:45;;;;;;;21.80;12.10;;;;;;;;;;5034363;28;20281;-63
2022/12/31 05:02:12;;;;;;;27.93;13.20;;;;;;;;;;5034287;28;20510;-62
2022/12/31 05:04:39;;;;;;;73.00;32.97;;;;;;;;;;5034324;28;20517;-62
2022/12/31 05:07:06;;;;;;;33.73;15.70;;;;;;;;;;5034133;28;20200;-62
2022/12/31 05:09:33;;;;;;;21.93;12.77;;;;;;;;;;5034008;28;20208;-62
2022/12/31 05:12:00;;;;;;;25.23;12.93;;;;;;;;;;5034144;28;20239;-62
2022/12/31 05:14:28;;;;;;;21.60;11.97;;;;;;;;;;5033972;28;20200;-62
2022/12/31 05:16:55;;;;;;;23.43;12.40;;;;;;;;;;5034281;28;20311;-62
2022/12/31 05:19:22;;;;;;;70.73;29.97;;;;;;;;;;5033827;28;20652;-62
2022/12/31 05:24:35;;;;;;;21.70;13.47;;;;;;;;;;5033888;28;20205;-63
2022/12/31 05:27:02;;;;;;;29.30;14.80;;;;;;;;;;5033975;28;20572;-62
2022/12/31 05:29:30;;;;;;;21.13;12.10;;;;;;;;;;5034102;28;20603;-62
2022/12/31 05:31:57;;;;;;;19.00;11.60;;;;;;;;;;5033754;28;20236;-62
2022/12/31 05:34:24;;;;;;;18.97;12.07;;;;;;;;;;5033724;28;20667;-62
2022/12/31 05:36:51;;;;;;;17.77;11.37;;;;;;;;;;5033757;28;20545;-62
2022/12/31 05:39:18;;;;;;;18.03;11.30;;;;;;;;;;5033966;28;20243;-62
2022/12/31 05:41:45;;;;;;;44.47;21.30;;;;;;;;;;5034079;28;20197;-62
2022/12/31 05:44:12;;;;;;;25.17;13.23;;;;;;;;;;5033836;28;20547;-63
2022/12/31 05:46:39;;;;;;;21.67;11.60;;;;;;;;;;5033608;28;20204;-62
2022/12/31 05:49:07;;;;;;;29.83;13.50;;;;;;;;;;5033571;28;20552;-63
2022/12/31 05:51:34;;;;;;;22.63;12.13;;;;;;;;;;5033841;28;20228;-63
2022/12/31 05:54:01;;;;;;;20.30;11.83;;;;;;;;;;5033708;28;20657;-63
2022/12/31 05:56:28;;;;;;;21.83;12.10;;;;;;;;;;5033754;28;20205;-63
2022/12/31 05:58:55;;;;;;;20.90;11.40;;;;;;;;;;5033677;28;20239;-63
2022/12/31 06:01:23;;;;;;;124.10;46.50;;;;;;;;;;5031509;28;20228;-62
2022/12/31 06:03:50;;;;;;;195.70;86.30;;;;;;;;;;5024658;28;20208;-62
2022/12/31 06:06:17;;;;;;;41.37;19.87;;;;;;;;;;5023427;28;20204;-64
2022/12/31 06:08:51;;;;;;;24.30;13.87;;;;;;;;;;5020796;28;20197;-63
2022/12/31 06:11:18;;;;;;;27.67;14.13;;;;;;;;;;5024787;28;20585;-62
2022/12/31 06:13:45;;;;;;;31.43;14.20;;;;;;;;;;5026506;28;20270;-64
2022/12/31 06:16:12;;;;;;;20.20;11.07;;;;;;;;;;5026570;28;20334;-65
2022/12/31 06:18:40;;;;;;;17.43;11.67;;;;;;;;;;5024482;28;20740;-63
2022/12/31 06:21:07;;;;;;;20.50;11.50;;;;;;;;;;5032360;28;20573;-63
2022/12/31 06:23:34;;;;;;;22.47;12.00;;;;;;;;;;5025668;28;20505;-63
2022/12/31 06:26:03;;;;;;;23.83;13.03;;;;;;;;;;5026171;28;20280;-64
2022/12/31 06:28:30;;;;;;;25.83;13.00;;;;;;;;;;5026722;28;20209;-63
2022/12/31 06:31:04;;;;;;;26.33;12.83;;;;;;;;;;5024505;28;20570;-65
2022/12/31 06:33:32;;;;;;;23.80;13.03;;;;;;;;;;5026794;28;20219;-64
2022/12/31 06:36:02;;;;;;;22.83;11.67;;;;;;;;;;5026273;28;20205;-64
2022/12/31 06:38:31;;;;;;;20.83;11.57;;;;;;;;;;5027891;28;20669;-64
2022/12/31 06:41:02;;;;;;;21.50;12.33;;;;;;;;;;5031765;28;20228;-64
2022/12/31 06:43:30;;;;;;;20.70;11.57;;;;;;;;;;5036610;28;20228;-63
2022/12/31 06:46:01;;;;;;;43.07;19.43;;;;;;;;;;5029753;28;20267;-63
2022/12/31 06:48:28;;;;;;;31.80;14.37;;;;;;;;;;5023743;28;20221;-64
2022/12/31 06:50:55;;;;;;;22.63;12.90;;;;;;;;;;5035430;28;20224;-62
2022/12/31 06:53:23;;;;;;;25.30;12.47;;;;;;;;;;5035856;28;20237;-62
2022/12/31 06:55:50;;;;;;;26.63;13.30;;;;;;;;;;5035647;28;20233;-66
2022/12/31 06:58:18;;;;;;;29.43;12.93;;;;;;;;;;5035396;28;20672;-64
2022/12/31 07:01:22;;;;;;;30.90;12.97;;;;;;;;;;5035244;28;20294;-62
2022/12/31 07:03:55;;;;;;;227.00;84.63;;;;;;;;;;5035603;28;20224;-64
2022/12/31 07:06:33;;;;;;;48.47;25.00;;;;;;;;;;5035334;28;20235;-64
2022/12/31 07:09:08;;;;;;;43.70;28.30;;;;;;;;;;5034484;28;20221;-62
2022/12/31 07:11:55;;;;;;;26.30;16.07;;;;;;;;;;5028949;28;20224;-61
2022/12/31 07:14:48;;;;;;;25.73;15.80;;;;;;;;;;5030250;28;20299;-61
2022/12/31 07:17:40;;;;;;;23.60;13.43;;;;;;;;;;5014073;28;20229;-61
2022/12/31 07:20:11;;;;;;;28.57;13.87;;;;;;;;;;5014027;28;20240;-62
2022/12/31 07:22:39;;;;;;;23.27;13.23;;;;;;;;;;5015531;28;20247;-64
2022/12/31 07:25:11;;;;;;;53.23;24.77;;;;;;;;;;5015344;28;20232;-61
2022/12/31 07:27:38;;;;;;;54.30;23.43;;;;;;;;;;5014998;28;20234;-63
2022/12/31 07:30:12;;;;;;;25.67;15.00;;;;;;;;;;5014956;28;20229;-64
2022/12/31 07:32:48;;;;;;;25.40;13.57;;;;;;;;;;5030723;28;20256;-64
2022/12/31 07:35:54;;;;;;;40.13;16.60;;;;;;;;;;5015079;28;20250;-64
2022/12/31 07:38:32;;;;;;;21.10;12.50;;;;;;;;;;5015209;28;20247;-63
2022/12/31 07:41:21;;;;;;;41.97;20.53;;;;;;;;;;5014271;28;20275;-63
2022/12/31 07:44:26;;;;;;;52.13;25.40;;;;;;;;;;5014865;28;20291;-66
2022/12/31 07:46:58;;;;;;;22.60;13.00;;;;;;;;;;5014927;28;20291;-69
2022/12/31 07:49:27;;;;;;;24.23;12.43;;;;;;;;;;5014890;28;20229;-66
2022/12/31 07:51:55;;;;;;;29.63;14.80;;;;;;;;;;5014976;28;20233;-62
2022/12/31 07:54:22;;;;;;;24.13;14.10;;;;;;;;;;5013688;28;20689;-61
2022/12/31 07:56:50;;;;;;;21.97;11.90;;;;;;;;;;5014968;28;20751;-62
2022/12/31 07:59:39;;;;;;;19.80;12.50;;;;;;;;;;5015309;28;20253;-61
2022/12/31 08:02:37;;;;;;;20.10;10.93;;;;;;;;;;5035093;28;20232;-62
2022/12/31 08:05:28;;;;;;;27.03;15.03;;;;;;;;;;5034141;28;20231;-64
2022/12/31 08:08:19;;;;;;;22.63;11.97;;;;;;;;;;5033985;28;20225;-63
2022/12/31 08:10:46;;;;;;;20.23;11.27;;;;;;;;;;5034026;28;20228;-61
2022/12/31 08:13:14;;;;;;;24.33;12.53;;;;;;;;;;5033956;28;20258;-62
2022/12/31 08:15:42;;;;;;;27.63;12.73;;;;;;;;;;5033292;28;20221;-62
2022/12/31 08:18:09;;;;;;;24.33;12.07;;;;;;;;;;5034014;28;20232;-62
2022/12/31 08:21:02;;;;;;;24.17;11.73;;;;;;;;;;5032732;28;20303;-66
2022/12/31 08:23:48;;;;;;;58.17;27.10;;;;;;;;;;5032155;28;20708;-64
2022/12/31 08:26:21;;;;;;;22.43;14.30;;;;;;;;;;5033765;28;20652;-63
2022/12/31 08:28:56;;;;;;;15.87;9.90;;;;;;;;;;5034023;28;20725;-63
2022/12/31 08:31:46;;;;;;;33.20;13.53;;;;;;;;;;5032498;28;20648;-64
2022/12/31 08:34:38;;;;;;;16.90;9.63;;;;;;;;;;5033675;28;20239;-63
2022/12/31 08:37:27;;;;;;;17.23;9.43;;;;;;;;;;5033612;28;20608;-64
2022/12/31 08:40:15;;;;;;;17.13;10.07;;;;;;;;;;5033281;28;20228;-62
2022/12/31 08:42:48;;;;;;;26.23;11.90;;;;;;;;;;5032732;28;20552;-64
2022/12/31 08:45:43;;;;;;;42.95;20.45;;;;;;;;;;5032801;28;20224;-64
2022/12/31 08:48:19;;;;;;;15.17;9.60;;;;;;;;;;5036006;28;20395;-65
2022/12/31 08:50:46;;;;;;;19.37;10.77;;;;;;;;;;5031096;28;20233;-63
2022/12/31 08:53:14;;;;;;;15.00;8.43;;;;;;;;;;5033203;28;20225;-62
2022/12/31 08:55:42;;;;;;;39.83;13.83;;;;;;;;;;5033299;28;20677;-63
2022/12/31 08:58:21;;;;;;;22.23;11.60;;;;;;;;;;5030859;28;20306;-63
2022/12/31 09:00:52;;;;;;;23.35;13.60;;;;;;;;;;5032938;28;20665;-64
2022/12/31 09:03:22;;;;;;;14.40;9.27;;;;;;;;;;5030688;28;20232;-65
2022/12/31 09:06:02;;;;;;;28.00;14.82;;;;;;;;;;5033028;28;20815;-66
2022/12/31 09:08:40;;;;;;;19.70;14.47;;;;;;;;;;5032233;28;20220;-65
2022/12/31 09:11:13;;;;;;;17.20;10.60;;;;;;;;;;5033192;28;20559;-65
2022/12/31 09:14:10;;;;;;;22.73;10.10;;;;;;;;;;5031760;28;20235;-64
2022/12/31 09:17:01;;;;;;;17.47;10.40;;;;;;;;;;5033406;28;20224;-60
2022/12/31 09:19:28;;;;;;;14.30;8.50;;;;;;;;;;5033150;28;20229;-60
2022/12/31 09:21:55;;;;;;;34.43;13.67;;;;;;;;;;5032934;28;20225;-65
2022/12/31 09:24:23;;;;;;;14.73;8.77;;;;;;;;;;5032118;28;20560;-60
2022/12/31 09:27:00;;;;;;;14.53;8.03;;;;;;;;;;5026969;28;20240;-62
2022/12/31 09:29:56;;;;;;;28.07;13.57;;;;;;;;;;5023451;28;20310;-60
2022/12/31 09:32:29;;;;;;;41.20;20.80;;;;;;;;;;5015675;28;20232;-61
2022/12/31 09:35:00;;;;;;;22.60;13.00;;;;;;;;;;5022241;28;20256;-61
2022/12/31 09:37:47;;;;;;;39.80;19.88;;;;;;;;;;5021495;28;20255;-61
2022/12/31 09:40:36;;;;;;;23.73;12.53;;;;;;;;;;5026373;28;20227;-63
2022/12/31 09:43:09;;;;;;;22.73;12.57;;;;;;;;;;5021463;28;20208;-61
2022/12/31 09:45:48;;;;;;;24.10;12.10;;;;;;;;;;5024921;28;20255;-62
2022/12/31 09:48:47;;;;;;;29.65;15.10;;;;;;;;;;5028638;28;20220;-62
2022/12/31 09:51:28;;;;;;;41.73;25.00;;;;;;;;;;5014082;28;20290;-62
2022/12/31 09:54:02;;;;;;;17.63;10.63;;;;;;;;;;5035430;28;20302;-60
2022/12/31 09:56:35;;;;;;;18.13;10.03;;;;;;;;;;5017650;28;20881;-60
2022/12/31 09:59:12;;;;;;;18.13;10.40;;;;;;;;;;5032154;28;20228;-60
2022/12/31 10:02:00;;;;;;;19.83;11.25;;;;;;;;;;5035816;28;20217;-64
2022/12/31 10:04:46;;;;;;;16.98;9.50;;;;;;;;;;5034875;28;20232;-64
2022/12/31 10:07:29;;;;;;;24.67;12.15;;;;;;;;;;5034520;28;20228;-63
2022/12/31 10:10:08;;;;;;;35.63;15.40;;;;;;;;;;5026043;28;20221;-65
2022/12/31 10:13:03;;;;;;;23.17;12.20;;;;;;;;;;5032028;28;20583;-63
2022/12/31 10:15:30;;;;;;;32.55;16.45;;;;;;;;;;5026424;28;20239;-65
2022/12/31 10:18:16;;;;;;;18.95;11.07;;;;;;;;;;5028163;28;20228;-63
2022/12/31 10:20:50;;;;;;;19.50;10.57;;;;;;;;;;5022568;28;20673;-63
2022/12/31 10:23:20;;;;;;;20.73;10.75;;;;;;;;;;5035892;28;20351;-63
2022/12/31 10:25:55;;;;;;;32.95;14.77;;;;;;;;;;5036668;28;20232;-61
2022/12/31 10:28:35;;;;;;;29.00;12.70;;;;;;;;;;5035480;28;20232;-61
2022/12/31 10:31:17;;;;;;;57.55;30.67;;;;;;;;;;5035444;28;20220;-62
2022/12/31 10:33:50;;;;;;;35.47;22.47;;;;;;;;;;5022531;28;20558;-63
2022/12/31 10:36:25;;;;;;;22.52;11.82;;;;;;;;;;5024494;28;20727;-62
2022/12/31 10:39:00;;;;;;;21.08;10.75;;;;;;;;;;5017800;28;20236;-62
2022/12/31 10:42:15;;;;;;;20.95;10.90;;;;;;;;;;5015954;28;20237;-65
2022/12/31 10:44:50;;;;;;;15.95;9.13;;;;;;;;;;4994628;28;20230;-65
2022/12/31 10:47:50;;;;;;;18.40;10.70;;;;;;;;;;5014337;28;20232;-63
2022/12/31 10:50:37;;;;;;;16.40;9.45;;;;;;;;;;4996557;28;20567;-62
2022/12/31 10:53:29;;;;;;;17.73;10.43;;;;;;;;;;5016002;28;20229;-65
2022/12/31 10:56:33;;;;;;;20.60;11.73;;;;;;;;;;5015837;28;20221;-63
2022/12/31 10:59:39;;;;;;;14.73;8.70;;;;;;;;;;5016231;28;20233;-62
2022/12/31 11:02:27;;;;;;;13.00;7.63;;;;;;;;;;4955406;28;20700;-66
2022/12/31 11:05:01;;;;;;;24.45;16.17;;;;;;;;;;5013933;28;20221;-65
2022/12/31 11:07:43;;;;;;;21.42;13.90;;;;;;;;;;5023296;28;20250;-65
2022/12/31 11:10:45;;;;;;;11.27;8.13;;;;;;;;;;5026294;28;20223;-63
2022/12/31 11:13:57;;;;;;;15.43;8.63;;;;;;;;;;5022469;28;20434;-63
2022/12/31 11:16:39;;;;;;;13.43;8.45;;;;;;;;;;5022750;28;20220;-62
2022/12/31 11:19:09;;;;;;;18.75;9.48;;;;;;;;;;5025439;28;20217;-64
2022/12/31 11:21:49;;;;;;;14.48;8.02;;;;;;;;;;5024354;28;20218;-64
2022/12/31 11:24:20;;;;;;;12.10;7.32;;;;;;;;;;5032230;28;20224;-63
2022/12/31 11:27:16;;;;;;;32.03;16.70;;;;;;;;;;5033994;28;20319;-62
2022/12/31 11:30:12;;;;;;;12.65;7.95;;;;;;;;;;5022602;28;20221;-63
2022/12/31 11:33:13;;;;;;;16.80;7.97;;;;;;;;;;5026306;28;20666;-63
2022/12/31 11:35:56;;;;;;;15.27;7.75;;;;;;;;;;5017595;28;20231;-62
2022/12/31 11:38:32;;;;;;;12.27;7.43;;;;;;;;;;5023595;28;20625;-63
2022/12/31 11:41:07;;;;;;;83.57;47.05;;;;;;;;;;5020980;28;20295;-62
2022/12/31 11:43:45;;;;;;;30.25;21.13;;;;;;;;;;5023866;28;20231;-64
2022/12/31 11:46:15;;;;;;;13.03;8.10;;;;;;;;;;5019484;28;20220;-64
2022/12/31 11:49:12;;;;;;;19.35;9.55;;;;;;;;;;5022736;28;20221;-63
2022/12/31 11:51:52;;;;;;;14.60;7.85;;;;;;;;;;5021510;28;20237;-62
2022/12/31 11:54:37;;;;;;;11.70;7.35;;;;;;;;;;5024312;28;20235;-62
2022/12/31 11:57:16;;;;;;;12.55;7.45;;;;;;;;;;5021313;28;20514;-62
2022/12/31 11:59:43;;;;;;;11.27;7.57;;;;;;;;;;5026822;28;20251;-62
2022/12/31 12:02:23;;;;;;;12.30;7.82;;;;;;;;;;5021415;28;20217;-65
2022/12/31 12:04:52;;;;;;;14.73;9.00;;;;;;;;;;5028902;28;20259;-63
2022/12/31 12:07:19;;;;;;;16.88;9.10;;;;;;;;;;5032955;28;20235;-63
2022/12/31 12:09:46;;;;;;;25.52;16.25;;;;;;;;;;5032568;28;20220;-65
2022/12/31 12:12:14;;;;;;;12.27;8.35;;;;;;;;;;5028353;28;20236;-62
2022/12/31 12:14:48;;;;;;;15.23;8.35;;;;;;;;;;5025038;28;20241;-63
2022/12/31 12:17:21;;;;;;;14.60;8.73;;;;;;;;;;5022241;28;20226;-63
2022/12/31 12:19:53;;;;;;;16.00;8.35;;;;;;;;;;5034159;28;20605;-62
2022/12/31 12:22:22;;;;;;;12.63;7.95;;;;;;;;;;5031833;28;20342;-62
2022/12/31 12:25:03;;;;;;;11.98;7.53;;;;;;;;;;5014779;28;20229;-62
2022/12/31 12:27:33;;;;;;;12.65;7.82;;;;;;;;;;5030099;28;20302;-64
2022/12/31 12:30:18;;;;;;;12.73;7.75;;;;;;;;;;5034059;28;20227;-63
2022/12/31 12:32:53;;;;;;;16.25;9.55;;;;;;;;;;5033797;28;20319;-63
2022/12/31 12:35:26;;;;;;;15.88;7.85;;;;;;;;;;5033463;28;20299;-65
2022/12/31 12:38:11;;;;;;;20.40;9.23;;;;;;;;;;5032804;28;20248;-65
2022/12/31 12:40:39;;;;;;;18.83;10.95;;;;;;;;;;5031333;28;20213;-65
2022/12/31 12:43:20;;;;;;;15.18;9.07;;;;;;;;;;5024919;28;20220;-61
2022/12/31 12:45:48;;;;;;;13.35;8.10;;;;;;;;;;5033865;28;20231;-63
2022/12/31 12:48:24;;;;;;;14.20;7.35;;;;;;;;;;5033194;28;20224;-62
2022/12/31 12:50:52;;;;;;;11.95;7.50;;;;;;;;;;5033659;28;20233;-61
2022/12/31 12:53:28;;;;;;;11.70;7.10;;;;;;;;;;5027275;28;20228;-59
2022/12/31 12:56:36;;;;;;;11.30;7.03;;;;;;;;;;5026156;28;20235;-61
2022/12/31 12:59:16;;;;;;;13.40;7.35;;;;;;;;;;4976147;28;20238;-61
2022/12/31 13:02:17;;;;;;;11.57;6.85;;;;;;;;;;5030936;28;20232;-61
2022/12/31 13:04:52;;;;;;;14.77;8.98;;;;;;;;;;5032940;28;20266;-61
2022/12/31 13:07:31;;;;;;;12.82;7.05;;;;;;;;;;5024191;28;20221;-60
2022/12/31 13:10:16;;;;;;;12.20;6.95;;;;;;;;;;5012732;28;20225;-63
2022/12/31 13:13:05;;;;;;;13.82;7.93;;;;;;;;;;5013687;28;20729;-61
2022/12/31 13:16:10;;;;;;;11.73;7.13;;;;;;;;;;5012775;28;20684;-60
2022/12/31 13:18:53;;;;;;;16.13;8.15;;;;;;;;;;5026230;28;20579;-61
2022/12/31 13:21:29;;;;;;;20.02;10.48;;;;;;;;;;5022456;28;20220;-58
2022/12/31 13:24:23;;;;;;;28.70;13.52;;;;;;;;;;5021468;28;20228;-62
2022/12/31 13:27:14;;;;;;;22.80;12.10;;;;;;;;;;5031122;28;20677;-62
2022/12/31 13:29:43;;;;;;;28.98;13.80;;;;;;;;;;5022895;28;20233;-62
2022/12/31 13:32:34;;;;;;;15.23;9.68;;;;;;;;;;5028409;28;20252;-66
2022/12/31 13:35:16;;;;;;;14.02;8.02;;;;;;;;;;5018211;28;20673;-64
2022/12/31 13:37:43;;;;;;;13.55;7.90;;;;;;;;;;5021895;28;20224;-62
2022/12/31 13:40:39;;;;;;;16.30;8.05;;;;;;;;;;5020771;28;20255;-63
2022/12/31 13:43:13;;;;;;;12.98;9.15;;;;;;;;;;5016789;28;20290;-65
2022/12/31 13:45:43;;;;;;;12.52;7.35;;;;;;;;;;5023011;28;20223;-61
2022/12/31 13:48:18;;;;;;;11.75;6.97;;;;;;;;;;5019152;28;20729;-62
2022/12/31 13:51:11;;;;;;;14.02;7.43;;;;;;;;;;5012192;28;20232;-64
2022/12/31 13:53:50;;;;;;;11.35;6.75;;;;;;;;;;5017299;28;20546;-62
2022/12/31 13:56:22;;;;;;;13.27;7.25;;;;;;;;;;5011910;28;20232;-61
2022/12/31 13:58:52;;;;;;;10.63;6.50;;;;;;;;;;5012083;28;20229;-63
2022/12/31 14:01:28;;;;;;;10.38;6.45;;;;;;;;;;5030690;28;20224;-64
2022/12/31 14:04:11;;;;;;;15.27;9.50;;;;;;;;;;5032120;28;20228;-61
2022/12/31 14:06:46;;;;;;;13.95;8.10;;;;;;;;;;5032254;28;20524;-61
2022/12/31 14:09:21;;;;;;;11.52;8.25;;;;;;;;;;5031009;28;20209;-64
2022/12/31 14:11:54;;;;;;;12.10;7.43;;;;;;;;;;5032800;28;20237;-65
2022/12/31 14:14:47;;;;;;;16.58;9.43;;;;;;;;;;5032471;28;20217;-62
2022/12/31 14:17:24;;;;;;;13.15;7.00;;;;;;;;;;5031657;28;20217;-65
2022/12/31 14:19:59;;;;;;;11.50;7.03;;;;;;;;;;5032732;28;20220;-62
2022/12/31 14:22:50;;;;;;;12.55;7.03;;;;;;;;;;5031541;28;20224;-59
2022/12/31 14:25:34;;;;;;;14.38;7.00;;;;;;;;;;5032173;28;20681;-62
2022/12/31 14:28:03;;;;;;;11.57;6.43;;;;;;;;;;5031547;28;20263;-61
2022/12/31 14:30:34;;;;;;;11.27;6.72;;;;;;;;;;5032768;28;20565;-66
2022/12/31 14:33:04;;;;;;;10.77;6.63;;;;;;;;;;5031115;28;20221;-62
2022/12/31 14:35:36;;;;;;;10.85;6.25;;;;;;;;;;5035059;28;20240;-61
2022/12/31 14:38:41;;;;;;;9.82;6.50;;;;;;;;;;5036184;28;20251;-60
2022/12/31 14:41:14;;;;;;;13.15;7.20;;;;;;;;;;5035913;28;20224;-60
2022/12/31 14:43:48;;;;;;;13.70;6.88;;;;;;;;;;5034573;28;20224;-62
2022/12/31 14:46:35;;;;;;;12.82;8.32;;;;;;;;;;5035606;28;20272;-61
2022/12/31 14:49:32;;;;;;;8.68;5.88;;;;;;;;;;5036205;28;20243;-61
2022/12/31 14:52:19;;;;;;;9.98;6.60;;;;;;;;;;4974904;28;20237;-61
2022/12/31 14:55:16;;;;;;;13.27;6.50;;;;;;;;;;4959128;28;20285;-60
2022/12/31 14:57:47;;;;;;;9.93;5.93;;;;;;;;;;4968584;28;20633;-60
2022/12/31 15:00:39;;;;;;;9.77;6.72;;;;;;;;;;4962683;28;20622;-64
2022/12/31 15:03:13;;;;;;;11.25;6.30;;;;;;;;;;4954799;29;20261;-66
2022/12/31 15:06:14;;;;;;;12.20;6.93;;;;;;;;;;4955372;28;20715;-61
2022/12/31 15:09:16;;;;;;;16.15;7.43;;;;;;;;;;4954658;28;20589;-65
2022/12/31 15:12:20;;;;;;;10.98;6.53;;;;;;;;;;4955043;28;20770;-61
2022/12/31 15:15:36;;;;;;;12.13;7.20;;;;;;;;;;4955455;28;20262;-60
2022/12/31 15:18:25;;;;;;;11.02;5.97;;;;;;;;;;4916539;29;20334;-62